sensor_id;sensor_type;location;lat;lon;timestamp;P1;durP1;ratioP1;P2;durP2;ratioP2
14486;SDS011;7329;50.866;4.366;2022-08-05T00:01:00;2.65;;;2.20;;
14486;SDS011;7329;50.866;4.366;2022-08-05T00:03:02;4.25;;;2.50;;
14486;SDS011;7329;50.866;4.366;2022-08-05T00:05:05;3.63;;;2.22;;
14486;SDS011;7329;50.866;4.366;2022-08-05T00:07:09;3.10;;;2.38;;
14486;SDS011;7329;50.866;4.366;2022-08-05T00:09:12;3.80;;;2.30;;
14486;SDS011;7329;50.866;4.366;2022-08-05T00:11:14;3.70;;;2.47;;
14486;SDS011;7329;50.866;4.366;2022-08-05T00:13:16;2.47;;;2.20;;
14486;SDS011;7329;50.866;4.366;2022-08-05T00:15:19;2.42;;;2.22;;
14486;SDS011;7329;50.866;4.366;2022-08-05T00:17:21;3.88;;;2.20;;
14486;SDS011;7329;50.866;4.366;2022-08-05T00:19:23;3.03;;;2.28;;
14486;SDS011;7329;50.866;4.366;2022-08-05T00:21:26;3.58;;;2.30;;
14486;SDS011;7329;50.866;4.366;2022-08-05T00:23:30;3.10;;;2.05;;
14486;SDS011;7329;50.866;4.366;2022-08-05T00:25:32;4.07;;;2.20;;
14486;SDS011;7329;50.866;4.366;2022-08-05T00:27:34;4.13;;;2.35;;
14486;SDS011;7329;50.866;4.366;2022-08-05T00:29:36;3.05;;;2.25;;
14486;SDS011;7329;50.866;4.366;2022-08-05T00:31:39;4.03;;;2.05;;
14486;SDS011;7329;50.866;4.366;2022-08-05T00:33:41;3.05;;;1.92;;
14486;SDS011;7329;50.866;4.366;2022-08-05T00:35:43;3.22;;;2.15;;
14486;SDS011;7329;50.866;4.366;2022-08-05T00:37:46;2.63;;;2.10;;
14486;SDS011;7329;50.866;4.366;2022-08-05T00:39:49;3.58;;;2.30;;
14486;SDS011;7329;50.866;4.366;2022-08-05T00:41:52;2.75;;;2.30;;
14486;SDS011;7329;50.866;4.366;2022-08-05T00:43:54;3.58;;;2.05;;
14486;SDS011;7329;50.866;4.366;2022-08-05T00:45:57;5.40;;;2.28;;
14486;SDS011;7329;50.866;4.366;2022-08-05T00:47:59;2.80;;;2.30;;
14486;SDS011;7329;50.866;4.366;2022-08-05T00:50:01;3.25;;;2.20;;
14486;SDS011;7329;50.866;4.366;2022-08-05T00:52:04;3.83;;;2.25;;
14486;SDS011;7329;50.866;4.366;2022-08-05T00:54:06;2.88;;;2.08;;
14486;SDS011;7329;50.866;4.366;2022-08-05T00:56:10;2.95;;;2.10;;
14486;SDS011;7329;50.866;4.366;2022-08-05T00:58:12;3.70;;;2.30;;
14486;SDS011;7329;50.866;4.366;2022-08-05T01:00:17;3.55;;;1.92;;
14486;SDS011;7329;50.866;4.366;2022-08-05T01:02:19;2.35;;;2.15;;
14486;SDS011;7329;50.866;4.366;2022-08-05T01:04:21;3.22;;;2.30;;
14486;SDS011;7329;50.866;4.366;2022-08-05T01:06:24;4.15;;;2.10;;
14486;SDS011;7329;50.866;4.366;2022-08-05T01:08:26;2.65;;;2.13;;
14486;SDS011;7329;50.866;4.366;2022-08-05T01:10:29;2.67;;;2.10;;
14486;SDS011;7329;50.866;4.366;2022-08-05T01:12:38;2.83;;;2.17;;
14486;SDS011;7329;50.866;4.366;2022-08-05T01:14:46;3.63;;;2.35;;
14486;SDS011;7329;50.866;4.366;2022-08-05T01:16:53;3.03;;;2.05;;
14486;SDS011;7329;50.866;4.366;2022-08-05T01:19:04;4.05;;;2.20;;
14486;SDS011;7329;50.866;4.366;2022-08-05T01:21:15;3.08;;;2.22;;
14486;SDS011;7329;50.866;4.366;2022-08-05T01:23:36;4.43;;;2.03;;
14486;SDS011;7329;50.866;4.366;2022-08-05T01:25:52;4.13;;;2.15;;
14486;SDS011;7329;50.866;4.366;2022-08-05T01:28:18;2.35;;;2.10;;
14486;SDS011;7329;50.866;4.366;2022-08-05T01:30:28;3.17;;;2.08;;
14486;SDS011;7329;50.866;4.366;2022-08-05T01:32:35;3.78;;;2.50;;
14486;SDS011;7329;50.866;4.366;2022-08-05T01:34:44;3.03;;;2.30;;
14486;SDS011;7329;50.866;4.366;2022-08-05T01:36:52;4.32;;;2.45;;
14486;SDS011;7329;50.866;4.366;2022-08-05T01:38:59;2.75;;;1.90;;
14486;SDS011;7329;50.866;4.366;2022-08-05T01:41:02;3.47;;;2.17;;
14486;SDS011;7329;50.866;4.366;2022-08-05T01:43:08;3.30;;;2.30;;
14486;SDS011;7329;50.866;4.366;2022-08-05T01:45:13;4.22;;;2.13;;
14486;SDS011;7329;50.866;4.366;2022-08-05T01:47:17;3.53;;;1.95;;
14486;SDS011;7329;50.866;4.366;2022-08-05T01:49:21;2.88;;;1.98;;
14486;SDS011;7329;50.866;4.366;2022-08-05T01:51:25;2.78;;;2.10;;
14486;SDS011;7329;50.866;4.366;2022-08-05T01:53:29;3.15;;;2.10;;
14486;SDS011;7329;50.866;4.366;2022-08-05T01:55:35;3.58;;;2.42;;
14486;SDS011;7329;50.866;4.366;2022-08-05T01:57:39;2.30;;;1.90;;
14486;SDS011;7329;50.866;4.366;2022-08-05T01:59:43;4.88;;;2.08;;
14486;SDS011;7329;50.866;4.366;2022-08-05T02:01:51;4.25;;;2.35;;
14486;SDS011;7329;50.866;4.366;2022-08-05T02:03:56;2.40;;;1.90;;
14486;SDS011;7329;50.866;4.366;2022-08-05T02:06:00;2.50;;;1.90;;
14486;SDS011;7329;50.866;4.366;2022-08-05T02:08:04;2.75;;;2.00;;
14486;SDS011;7329;50.866;4.366;2022-08-05T02:10:07;3.13;;;2.13;;
14486;SDS011;7329;50.866;4.366;2022-08-05T02:12:11;3.00;;;2.00;;
14486;SDS011;7329;50.866;4.366;2022-08-05T02:14:19;3.35;;;2.20;;
14486;SDS011;7329;50.866;4.366;2022-08-05T02:16:29;3.58;;;2.20;;
14486;SDS011;7329;50.866;4.366;2022-08-05T02:18:37;2.78;;;2.13;;
14486;SDS011;7329;50.866;4.366;2022-08-05T02:20:45;3.55;;;2.17;;
14486;SDS011;7329;50.866;4.366;2022-08-05T02:22:53;3.00;;;2.00;;
14486;SDS011;7329;50.866;4.366;2022-08-05T02:25:00;2.78;;;1.92;;
14486;SDS011;7329;50.866;4.366;2022-08-05T02:27:06;4.28;;;2.30;;
14486;SDS011;7329;50.866;4.366;2022-08-05T02:29:11;3.50;;;2.20;;
14486;SDS011;7329;50.866;4.366;2022-08-05T02:31:18;3.45;;;2.10;;
14486;SDS011;7329;50.866;4.366;2022-08-05T02:33:24;2.88;;;2.30;;
14486;SDS011;7329;50.866;4.366;2022-08-05T02:35:28;2.78;;;1.80;;
14486;SDS011;7329;50.866;4.366;2022-08-05T02:37:34;3.60;;;1.98;;
14486;SDS011;7329;50.866;4.366;2022-08-05T02:39:39;2.78;;;2.00;;
14486;SDS011;7329;50.866;4.366;2022-08-05T02:41:42;3.45;;;2.28;;
14486;SDS011;7329;50.866;4.366;2022-08-05T02:43:47;2.47;;;2.20;;
14486;SDS011;7329;50.866;4.366;2022-08-05T02:45:51;2.25;;;2.05;;
14486;SDS011;7329;50.866;4.366;2022-08-05T02:47:54;2.78;;;1.77;;
14486;SDS011;7329;50.866;4.366;2022-08-05T02:49:57;2.10;;;1.85;;
14486;SDS011;7329;50.866;4.366;2022-08-05T02:52:02;2.55;;;2.08;;
14486;SDS011;7329;50.866;4.366;2022-08-05T02:54:08;4.13;;;2.35;;
14486;SDS011;7329;50.866;4.366;2022-08-05T02:56:12;3.13;;;2.17;;
14486;SDS011;7329;50.866;4.366;2022-08-05T02:58:15;3.80;;;2.20;;
14486;SDS011;7329;50.866;4.366;2022-08-05T03:00:19;3.60;;;1.98;;
14486;SDS011;7329;50.866;4.366;2022-08-05T03:02:23;3.22;;;2.10;;
14486;SDS011;7329;50.866;4.366;2022-08-05T03:04:28;3.40;;;2.42;;
14486;SDS011;7329;50.866;4.366;2022-08-05T03:06:32;3.28;;;2.00;;
14486;SDS011;7329;50.866;4.366;2022-08-05T03:08:37;3.72;;;2.42;;
14486;SDS011;7329;50.866;4.366;2022-08-05T03:10:41;2.95;;;2.10;;
14486;SDS011;7329;50.866;4.366;2022-08-05T03:12:44;2.55;;;1.80;;
14486;SDS011;7329;50.866;4.366;2022-08-05T03:14:46;2.58;;;2.10;;
14486;SDS011;7329;50.866;4.366;2022-08-05T03:16:49;3.95;;;2.35;;
14486;SDS011;7329;50.866;4.366;2022-08-05T03:18:51;2.55;;;1.95;;
14486;SDS011;7329;50.866;4.366;2022-08-05T03:20:53;2.85;;;2.10;;
14486;SDS011;7329;50.866;4.366;2022-08-05T03:22:55;4.18;;;2.42;;
14486;SDS011;7329;50.866;4.366;2022-08-05T03:25:00;2.78;;;1.70;;
14486;SDS011;7329;50.866;4.366;2022-08-05T03:27:03;3.38;;;2.08;;
14486;SDS011;7329;50.866;4.366;2022-08-05T03:29:05;3.88;;;2.28;;
14486;SDS011;7329;50.866;4.366;2022-08-05T03:31:08;3.58;;;2.15;;
14486;SDS011;7329;50.866;4.366;2022-08-05T03:33:11;2.40;;;1.85;;
14486;SDS011;7329;50.866;4.366;2022-08-05T03:35:14;3.60;;;2.10;;
14486;SDS011;7329;50.866;4.366;2022-08-05T03:37:16;2.22;;;1.90;;
14486;SDS011;7329;50.866;4.366;2022-08-05T03:39:19;3.35;;;2.03;;
14486;SDS011;7329;50.866;4.366;2022-08-05T03:41:23;2.60;;;2.05;;
14486;SDS011;7329;50.866;4.366;2022-08-05T03:43:25;4.22;;;2.40;;
14486;SDS011;7329;50.866;4.366;2022-08-05T03:45:27;3.97;;;1.70;;
14486;SDS011;7329;50.866;4.366;2022-08-05T03:47:29;2.45;;;1.75;;
14486;SDS011;7329;50.866;4.366;2022-08-05T03:49:32;3.85;;;2.38;;
14486;SDS011;7329;50.866;4.366;2022-08-05T03:51:35;2.75;;;1.83;;
14486;SDS011;7329;50.866;4.366;2022-08-05T03:53:43;2.90;;;2.13;;
14486;SDS011;7329;50.866;4.366;2022-08-05T03:55:55;3.25;;;1.90;;
14486;SDS011;7329;50.866;4.366;2022-08-05T03:58:02;3.83;;;1.83;;
14486;SDS011;7329;50.866;4.366;2022-08-05T04:00:09;2.50;;;1.80;;
14486;SDS011;7329;50.866;4.366;2022-08-05T04:02:14;2.70;;;2.22;;
14486;SDS011;7329;50.866;4.366;2022-08-05T04:04:19;3.55;;;2.10;;
14486;SDS011;7329;50.866;4.366;2022-08-05T04:06:22;3.67;;;2.20;;
14486;SDS011;7329;50.866;4.366;2022-08-05T04:08:25;3.67;;;2.08;;
14486;SDS011;7329;50.866;4.366;2022-08-05T04:10:29;2.25;;;1.98;;
14486;SDS011;7329;50.866;4.366;2022-08-05T04:12:33;3.90;;;2.08;;
14486;SDS011;7329;50.866;4.366;2022-08-05T04:14:37;2.97;;;2.00;;
14486;SDS011;7329;50.866;4.366;2022-08-05T04:16:40;3.40;;;1.85;;
14486;SDS011;7329;50.866;4.366;2022-08-05T04:18:43;3.08;;;2.35;;
14486;SDS011;7329;50.866;4.366;2022-08-05T04:20:51;3.78;;;2.40;;
14486;SDS011;7329;50.866;4.366;2022-08-05T04:22:54;2.80;;;2.28;;
14486;SDS011;7329;50.866;4.366;2022-08-05T04:24:56;3.15;;;1.95;;
14486;SDS011;7329;50.866;4.366;2022-08-05T04:26:58;2.88;;;1.92;;
14486;SDS011;7329;50.866;4.366;2022-08-05T04:29:01;3.03;;;2.05;;
14486;SDS011;7329;50.866;4.366;2022-08-05T04:31:05;3.40;;;2.13;;
14486;SDS011;7329;50.866;4.366;2022-08-05T04:33:08;2.83;;;1.88;;
14486;SDS011;7329;50.866;4.366;2022-08-05T04:35:10;3.83;;;2.35;;
14486;SDS011;7329;50.866;4.366;2022-08-05T04:37:12;2.72;;;1.88;;
14486;SDS011;7329;50.866;4.366;2022-08-05T04:39:14;5.55;;;2.22;;
14486;SDS011;7329;50.866;4.366;2022-08-05T04:41:17;3.38;;;2.15;;
14486;SDS011;7329;50.866;4.366;2022-08-05T04:43:19;3.92;;;2.30;;
14486;SDS011;7329;50.866;4.366;2022-08-05T04:45:21;2.67;;;1.90;;
14486;SDS011;7329;50.866;4.366;2022-08-05T04:47:26;4.57;;;2.40;;
14486;SDS011;7329;50.866;4.366;2022-08-05T04:49:28;2.78;;;1.90;;
14486;SDS011;7329;50.866;4.366;2022-08-05T04:51:31;3.80;;;2.08;;
14486;SDS011;7329;50.866;4.366;2022-08-05T04:53:33;3.20;;;2.08;;
14486;SDS011;7329;50.866;4.366;2022-08-05T04:55:35;2.33;;;1.77;;
14486;SDS011;7329;50.866;4.366;2022-08-05T04:57:38;2.33;;;1.70;;
14486;SDS011;7329;50.866;4.366;2022-08-05T04:59:41;5.00;;;2.22;;
14486;SDS011;7329;50.866;4.366;2022-08-05T05:01:43;4.30;;;2.00;;
14486;SDS011;7329;50.866;4.366;2022-08-05T05:03:46;3.08;;;1.90;;
14486;SDS011;7329;50.866;4.366;2022-08-05T05:05:49;3.33;;;2.28;;
14486;SDS011;7329;50.866;4.366;2022-08-05T05:07:51;3.58;;;2.13;;
14486;SDS011;7329;50.866;4.366;2022-08-05T05:09:53;3.53;;;2.08;;
14486;SDS011;7329;50.866;4.366;2022-08-05T05:11:56;2.72;;;2.10;;
14486;SDS011;7329;50.866;4.366;2022-08-05T05:13:58;2.85;;;1.85;;
14486;SDS011;7329;50.866;4.366;2022-08-05T05:16:00;2.72;;;1.98;;
14486;SDS011;7329;50.866;4.366;2022-08-05T05:18:02;2.63;;;1.90;;
14486;SDS011;7329;50.866;4.366;2022-08-05T05:20:08;2.33;;;2.08;;
14486;SDS011;7329;50.866;4.366;2022-08-05T05:22:11;3.22;;;2.00;;
14486;SDS011;7329;50.866;4.366;2022-08-05T05:24:13;3.58;;;2.10;;
14486;SDS011;7329;50.866;4.366;2022-08-05T05:26:16;3.13;;;2.10;;
14486;SDS011;7329;50.866;4.366;2022-08-05T05:28:18;2.72;;;1.63;;
14486;SDS011;7329;50.866;4.366;2022-08-05T05:30:21;3.40;;;1.83;;
14486;SDS011;7329;50.866;4.366;2022-08-05T05:32:23;3.50;;;2.15;;
14486;SDS011;7329;50.866;4.366;2022-08-05T05:34:25;4.75;;;2.10;;
14486;SDS011;7329;50.866;4.366;2022-08-05T05:36:30;3.35;;;2.38;;
14486;SDS011;7329;50.866;4.366;2022-08-05T05:38:32;2.97;;;2.00;;
14486;SDS011;7329;50.866;4.366;2022-08-05T05:40:35;3.58;;;2.17;;
14486;SDS011;7329;50.866;4.366;2022-08-05T05:42:37;2.72;;;2.10;;
14486;SDS011;7329;50.866;4.366;2022-08-05T05:44:39;3.88;;;2.25;;
14486;SDS011;7329;50.866;4.366;2022-08-05T05:46:41;2.35;;;1.75;;
14486;SDS011;7329;50.866;4.366;2022-08-05T05:48:44;3.55;;;2.00;;
14486;SDS011;7329;50.866;4.366;2022-08-05T05:50:47;3.78;;;2.20;;
14486;SDS011;7329;50.866;4.366;2022-08-05T05:52:53;4.82;;;1.90;;
14486;SDS011;7329;50.866;4.366;2022-08-05T05:54:59;3.65;;;2.17;;
14486;SDS011;7329;50.866;4.366;2022-08-05T05:57:01;2.95;;;1.90;;
14486;SDS011;7329;50.866;4.366;2022-08-05T05:59:05;4.82;;;2.20;;
14486;SDS011;7329;50.866;4.366;2022-08-05T06:01:07;3.13;;;2.00;;
14486;SDS011;7329;50.866;4.366;2022-08-05T06:03:10;3.53;;;2.03;;
14486;SDS011;7329;50.866;4.366;2022-08-05T06:05:13;2.70;;;2.10;;
14486;SDS011;7329;50.866;4.366;2022-08-05T06:07:16;3.72;;;2.40;;
14486;SDS011;7329;50.866;4.366;2022-08-05T06:09:19;2.97;;;2.13;;
14486;SDS011;7329;50.866;4.366;2022-08-05T06:11:22;2.80;;;2.08;;
14486;SDS011;7329;50.866;4.366;2022-08-05T06:13:24;3.03;;;1.90;;
14486;SDS011;7329;50.866;4.366;2022-08-05T06:15:26;3.70;;;2.20;;
14486;SDS011;7329;50.866;4.366;2022-08-05T06:17:29;4.22;;;2.28;;
14486;SDS011;7329;50.866;4.366;2022-08-05T06:19:31;3.45;;;1.95;;
14486;SDS011;7329;50.866;4.366;2022-08-05T06:21:34;2.78;;;1.80;;
14486;SDS011;7329;50.866;4.366;2022-08-05T06:23:37;3.67;;;2.20;;
14486;SDS011;7329;50.866;4.366;2022-08-05T06:25:40;4.35;;;1.90;;
14486;SDS011;7329;50.866;4.366;2022-08-05T06:27:43;3.72;;;2.10;;
14486;SDS011;7329;50.866;4.366;2022-08-05T06:29:45;3.90;;;2.25;;
14486;SDS011;7329;50.866;4.366;2022-08-05T06:31:47;3.83;;;1.80;;
14486;SDS011;7329;50.866;4.366;2022-08-05T06:33:50;4.50;;;2.03;;
14486;SDS011;7329;50.866;4.366;2022-08-05T06:35:52;4.20;;;2.17;;
14486;SDS011;7329;50.866;4.366;2022-08-05T06:37:55;2.35;;;2.03;;
14486;SDS011;7329;50.866;4.366;2022-08-05T06:39:57;2.00;;;1.65;;
14486;SDS011;7329;50.866;4.366;2022-08-05T06:42:01;4.53;;;2.22;;
14486;SDS011;7329;50.866;4.366;2022-08-05T06:44:03;3.13;;;1.95;;
14486;SDS011;7329;50.866;4.366;2022-08-05T06:46:06;3.47;;;1.85;;
14486;SDS011;7329;50.866;4.366;2022-08-05T06:48:08;2.55;;;2.03;;
14486;SDS011;7329;50.866;4.366;2022-08-05T06:50:11;3.40;;;2.08;;
14486;SDS011;7329;50.866;4.366;2022-08-05T06:52:13;2.58;;;1.70;;
14486;SDS011;7329;50.866;4.366;2022-08-05T06:54:15;3.47;;;2.05;;
14486;SDS011;7329;50.866;4.366;2022-08-05T06:56:18;5.43;;;2.28;;
14486;SDS011;7329;50.866;4.366;2022-08-05T06:58:21;2.38;;;1.70;;
14486;SDS011;7329;50.866;4.366;2022-08-05T07:00:23;2.70;;;2.10;;
14486;SDS011;7329;50.866;4.366;2022-08-05T07:02:26;3.28;;;2.10;;
14486;SDS011;7329;50.866;4.366;2022-08-05T07:04:28;3.67;;;2.00;;
14486;SDS011;7329;50.866;4.366;2022-08-05T07:06:31;3.15;;;2.00;;
14486;SDS011;7329;50.866;4.366;2022-08-05T07:08:33;4.57;;;1.90;;
14486;SDS011;7329;50.866;4.366;2022-08-05T07:10:35;3.85;;;2.10;;
14486;SDS011;7329;50.866;4.366;2022-08-05T07:12:38;3.25;;;2.10;;
14486;SDS011;7329;50.866;4.366;2022-08-05T07:14:59;3.95;;;2.20;;
14486;SDS011;7329;50.866;4.366;2022-08-05T07:17:18;5.32;;;2.22;;
14486;SDS011;7329;50.866;4.366;2022-08-05T07:19:21;2.92;;;1.90;;
14486;SDS011;7329;50.866;4.366;2022-08-05T07:21:23;3.10;;;2.20;;
14486;SDS011;7329;50.866;4.366;2022-08-05T07:23:25;4.43;;;2.33;;
14486;SDS011;7329;50.866;4.366;2022-08-05T07:25:27;4.45;;;2.20;;
14486;SDS011;7329;50.866;4.366;2022-08-05T07:27:30;2.30;;;1.92;;
14486;SDS011;7329;50.866;4.366;2022-08-05T07:29:32;3.80;;;2.35;;
14486;SDS011;7329;50.866;4.366;2022-08-05T07:31:37;2.17;;;1.80;;
14486;SDS011;7329;50.866;4.366;2022-08-05T07:33:39;4.68;;;1.90;;
14486;SDS011;7329;50.866;4.366;2022-08-05T07:35:42;2.60;;;2.00;;
14486;SDS011;7329;50.866;4.366;2022-08-05T07:37:45;2.70;;;2.10;;
14486;SDS011;7329;50.866;4.366;2022-08-05T07:39:47;3.08;;;2.10;;
14486;SDS011;7329;50.866;4.366;2022-08-05T07:41:49;3.47;;;2.00;;
14486;SDS011;7329;50.866;4.366;2022-08-05T07:43:52;3.08;;;2.00;;
14486;SDS011;7329;50.866;4.366;2022-08-05T07:45:54;3.53;;;1.85;;
14486;SDS011;7329;50.866;4.366;2022-08-05T07:47:58;3.50;;;1.80;;
14486;SDS011;7329;50.866;4.366;2022-08-05T07:50:01;3.33;;;1.95;;
14486;SDS011;7329;50.866;4.366;2022-08-05T07:52:03;3.20;;;2.10;;
14486;SDS011;7329;50.866;4.366;2022-08-05T07:54:06;3.05;;;1.92;;
14486;SDS011;7329;50.866;4.366;2022-08-05T07:56:08;3.75;;;2.13;;
14486;SDS011;7329;50.866;4.366;2022-08-05T07:58:11;3.15;;;2.10;;
14486;SDS011;7329;50.866;4.366;2022-08-05T08:00:13;4.55;;;2.20;;
14486;SDS011;7329;50.866;4.366;2022-08-05T08:02:16;3.65;;;2.40;;
14486;SDS011;7329;50.866;4.366;2022-08-05T08:04:19;2.90;;;2.03;;
14486;SDS011;7329;50.866;4.366;2022-08-05T08:06:22;4.05;;;1.85;;
14486;SDS011;7329;50.866;4.366;2022-08-05T08:08:24;2.55;;;1.70;;
14486;SDS011;7329;50.866;4.366;2022-08-05T08:10:27;2.65;;;1.90;;
14486;SDS011;7329;50.866;4.366;2022-08-05T08:12:29;4.43;;;2.20;;
14486;SDS011;7329;50.866;4.366;2022-08-05T08:14:31;3.50;;;1.83;;
14486;SDS011;7329;50.866;4.366;2022-08-05T08:16:34;2.38;;;1.85;;
14486;SDS011;7329;50.866;4.366;2022-08-05T08:18:36;2.70;;;1.90;;
14486;SDS011;7329;50.866;4.366;2022-08-05T08:20:42;2.45;;;1.83;;
14486;SDS011;7329;50.866;4.366;2022-08-05T08:22:49;2.45;;;1.70;;
14486;SDS011;7329;50.866;4.366;2022-08-05T08:24:52;2.83;;;2.03;;
14486;SDS011;7329;50.866;4.366;2022-08-05T08:26:54;3.30;;;1.80;;
14486;SDS011;7329;50.866;4.366;2022-08-05T08:28:57;3.92;;;1.90;;
14486;SDS011;7329;50.866;4.366;2022-08-05T08:30:59;2.60;;;1.90;;
14486;SDS011;7329;50.866;4.366;2022-08-05T08:33:05;2.55;;;2.10;;
14486;SDS011;7329;50.866;4.366;2022-08-05T08:35:08;2.78;;;1.95;;
14486;SDS011;7329;50.866;4.366;2022-08-05T08:37:12;2.70;;;1.90;;
14486;SDS011;7329;50.866;4.366;2022-08-05T08:39:14;2.53;;;1.83;;
14486;SDS011;7329;50.866;4.366;2022-08-05T08:41:17;2.83;;;1.83;;
14486;SDS011;7329;50.866;4.366;2022-08-05T08:43:20;3.17;;;2.15;;
14486;SDS011;7329;50.866;4.366;2022-08-05T08:45:28;2.78;;;1.60;;
14486;SDS011;7329;50.866;4.366;2022-08-05T08:47:32;3.88;;;2.00;;
14486;SDS011;7329;50.866;4.366;2022-08-05T08:49:35;2.85;;;1.80;;
14486;SDS011;7329;50.866;4.366;2022-08-05T08:51:41;3.88;;;1.98;;
14486;SDS011;7329;50.866;4.366;2022-08-05T08:53:48;2.67;;;1.80;;
14486;SDS011;7329;50.866;4.366;2022-08-05T08:55:51;2.05;;;1.70;;
14486;SDS011;7329;50.866;4.366;2022-08-05T08:57:53;1.95;;;1.73;;
14486;SDS011;7329;50.866;4.366;2022-08-05T08:59:56;3.28;;;1.42;;
14486;SDS011;7329;50.866;4.366;2022-08-05T09:01:59;2.33;;;1.80;;
14486;SDS011;7329;50.866;4.366;2022-08-05T09:04:05;3.05;;;2.00;;
14486;SDS011;7329;50.866;4.366;2022-08-05T09:06:08;3.30;;;1.95;;
14486;SDS011;7329;50.866;4.366;2022-08-05T09:08:10;2.45;;;1.63;;
14486;SDS011;7329;50.866;4.366;2022-08-05T09:10:14;3.35;;;1.70;;
14486;SDS011;7329;50.866;4.366;2022-08-05T09:12:16;2.47;;;1.88;;
14486;SDS011;7329;50.866;4.366;2022-08-05T09:14:18;2.72;;;1.80;;
14486;SDS011;7329;50.866;4.366;2022-08-05T09:16:21;3.05;;;1.75;;
14486;SDS011;7329;50.866;4.366;2022-08-05T09:18:24;1.70;;;1.60;;
14486;SDS011;7329;50.866;4.366;2022-08-05T09:20:26;2.58;;;1.73;;
14486;SDS011;7329;50.866;4.366;2022-08-05T09:22:37;2.95;;;1.60;;
14486;SDS011;7329;50.866;4.366;2022-08-05T09:25:06;3.88;;;1.98;;
14486;SDS011;7329;50.866;4.366;2022-08-05T09:27:08;3.30;;;1.73;;
14486;SDS011;7329;50.866;4.366;2022-08-05T09:29:10;2.35;;;1.83;;
14486;SDS011;7329;50.866;4.366;2022-08-05T09:31:14;3.17;;;2.20;;
14486;SDS011;7329;50.866;4.366;2022-08-05T09:33:17;2.72;;;1.80;;
14486;SDS011;7329;50.866;4.366;2022-08-05T09:35:19;4.15;;;2.03;;
14486;SDS011;7329;50.866;4.366;2022-08-05T09:37:22;2.60;;;1.77;;
14486;SDS011;7329;50.866;4.366;2022-08-05T09:39:27;3.28;;;1.85;;
14486;SDS011;7329;50.866;4.366;2022-08-05T09:41:30;2.72;;;1.90;;
14486;SDS011;7329;50.866;4.366;2022-08-05T09:43:33;3.33;;;1.90;;
14486;SDS011;7329;50.866;4.366;2022-08-05T09:45:38;2.30;;;1.63;;
14486;SDS011;7329;50.866;4.366;2022-08-05T09:47:42;2.53;;;2.00;;
14486;SDS011;7329;50.866;4.366;2022-08-05T09:49:44;4.10;;;1.77;;
14486;SDS011;7329;50.866;4.366;2022-08-05T09:51:48;3.60;;;1.90;;
14486;SDS011;7329;50.866;4.366;2022-08-05T09:53:51;2.97;;;1.40;;
14486;SDS011;7329;50.866;4.366;2022-08-05T09:55:56;3.08;;;1.92;;
14486;SDS011;7329;50.866;4.366;2022-08-05T09:58:08;2.40;;;1.70;;
14486;SDS011;7329;50.866;4.366;2022-08-05T10:00:11;3.47;;;1.80;;
14486;SDS011;7329;50.866;4.366;2022-08-05T10:02:29;3.20;;;1.85;;
14486;SDS011;7329;50.866;4.366;2022-08-05T10:04:33;2.60;;;2.03;;
14486;SDS011;7329;50.866;4.366;2022-08-05T10:06:37;1.98;;;1.50;;
14486;SDS011;7329;50.866;4.366;2022-08-05T10:08:41;3.85;;;1.55;;
14486;SDS011;7329;50.866;4.366;2022-08-05T10:10:45;3.25;;;1.60;;
14486;SDS011;7329;50.866;4.366;2022-08-05T10:12:52;2.80;;;1.60;;
14486;SDS011;7329;50.866;4.366;2022-08-05T10:17:16;3.45;;;1.92;;
14486;SDS011;7329;50.866;4.366;2022-08-05T10:19:19;2.65;;;1.77;;
14486;SDS011;7329;50.866;4.366;2022-08-05T10:21:21;2.25;;;1.25;;
14486;SDS011;7329;50.866;4.366;2022-08-05T10:23:25;3.45;;;1.80;;
14486;SDS011;7329;50.866;4.366;2022-08-05T10:25:29;3.83;;;1.33;;
14486;SDS011;7329;50.866;4.366;2022-08-05T10:27:31;2.50;;;1.83;;
14486;SDS011;7329;50.866;4.366;2022-08-05T10:29:37;2.63;;;1.73;;
14486;SDS011;7329;50.866;4.366;2022-08-05T10:31:40;2.75;;;1.90;;
14486;SDS011;7329;50.866;4.366;2022-08-05T10:33:43;2.35;;;1.70;;
14486;SDS011;7329;50.866;4.366;2022-08-05T10:35:45;1.60;;;1.50;;
14486;SDS011;7329;50.866;4.366;2022-08-05T10:37:47;2.25;;;1.40;;
14486;SDS011;7329;50.866;4.366;2022-08-05T10:39:50;1.90;;;1.30;;
14486;SDS011;7329;50.866;4.366;2022-08-05T10:41:55;1.42;;;1.33;;
14486;SDS011;7329;50.866;4.366;2022-08-05T10:44:04;1.83;;;1.45;;
14486;SDS011;7329;50.866;4.366;2022-08-05T10:46:12;2.97;;;1.50;;
14486;SDS011;7329;50.866;4.366;2022-08-05T10:48:28;2.50;;;1.50;;
14486;SDS011;7329;50.866;4.366;2022-08-05T10:50:49;1.88;;;1.67;;
14486;SDS011;7329;50.866;4.366;2022-08-05T10:52:59;1.98;;;1.50;;
14486;SDS011;7329;50.866;4.366;2022-08-05T10:55:02;2.55;;;1.63;;
14486;SDS011;7329;50.866;4.366;2022-08-05T10:57:06;2.25;;;1.40;;
14486;SDS011;7329;50.866;4.366;2022-08-05T10:59:15;1.85;;;1.40;;
14486;SDS011;7329;50.866;4.366;2022-08-05T11:01:28;2.25;;;1.50;;
14486;SDS011;7329;50.866;4.366;2022-08-05T11:03:31;1.83;;;1.30;;
14486;SDS011;7329;50.866;4.366;2022-08-05T11:05:35;2.45;;;1.70;;
14486;SDS011;7329;50.866;4.366;2022-08-05T11:09:57;2.22;;;1.40;;
14486;SDS011;7329;50.866;4.366;2022-08-05T11:12:02;2.72;;;1.70;;
14486;SDS011;7329;50.866;4.366;2022-08-05T11:14:05;3.72;;;1.30;;
14486;SDS011;7329;50.866;4.366;2022-08-05T11:16:19;1.75;;;1.50;;
14486;SDS011;7329;50.866;4.366;2022-08-05T11:18:26;2.95;;;1.85;;
14486;SDS011;7329;50.866;4.366;2022-08-05T11:20:30;1.80;;;1.48;;
14486;SDS011;7329;50.866;4.366;2022-08-05T11:22:41;1.92;;;1.50;;
14486;SDS011;7329;50.866;4.366;2022-08-05T11:24:46;2.17;;;1.45;;
14486;SDS011;7329;50.866;4.366;2022-08-05T11:27:27;2.10;;;1.50;;
14486;SDS011;7329;50.866;4.366;2022-08-05T11:29:34;2.03;;;1.50;;
14486;SDS011;7329;50.866;4.366;2022-08-05T11:31:40;1.92;;;1.38;;
14486;SDS011;7329;50.866;4.366;2022-08-05T11:33:53;2.08;;;1.42;;
14486;SDS011;7329;50.866;4.366;2022-08-05T11:35:57;1.40;;;1.30;;
14486;SDS011;7329;50.866;4.366;2022-08-05T11:38:00;1.38;;;1.27;;
14486;SDS011;7329;50.866;4.366;2022-08-05T11:40:03;1.30;;;1.10;;
14486;SDS011;7329;50.866;4.366;2022-08-05T11:42:06;2.10;;;1.30;;
14486;SDS011;7329;50.866;4.366;2022-08-05T11:44:10;1.67;;;1.20;;
14486;SDS011;7329;50.866;4.366;2022-08-05T11:46:15;2.00;;;1.40;;
14486;SDS011;7329;50.866;4.366;2022-08-05T11:48:18;3.70;;;1.30;;
14486;SDS011;7329;50.866;4.366;2022-08-05T11:50:21;3.13;;;1.42;;
14486;SDS011;7329;50.866;4.366;2022-08-05T11:52:24;2.58;;;1.50;;
14486;SDS011;7329;50.866;4.366;2022-08-05T11:54:27;1.33;;;1.10;;
14486;SDS011;7329;50.866;4.366;2022-08-05T11:56:42;2.90;;;1.40;;
14486;SDS011;7329;50.866;4.366;2022-08-05T11:58:46;2.15;;;1.60;;
14486;SDS011;7329;50.866;4.366;2022-08-05T12:00:50;2.60;;;1.58;;
14486;SDS011;7329;50.866;4.366;2022-08-05T12:03:14;2.97;;;1.58;;
14486;SDS011;7329;50.866;4.366;2022-08-05T12:05:24;1.90;;;1.30;;
14486;SDS011;7329;50.866;4.366;2022-08-05T12:07:32;1.77;;;1.20;;
14486;SDS011;7329;50.866;4.366;2022-08-05T12:09:35;1.55;;;1.30;;
14486;SDS011;7329;50.866;4.366;2022-08-05T12:11:42;1.58;;;1.20;;
14486;SDS011;7329;50.866;4.366;2022-08-05T12:13:54;1.92;;;1.23;;
14486;SDS011;7329;50.866;4.366;2022-08-05T12:15:58;1.80;;;1.40;;
14486;SDS011;7329;50.866;4.366;2022-08-05T12:18:01;1.73;;;1.40;;
14486;SDS011;7329;50.866;4.366;2022-08-05T12:20:03;2.58;;;1.35;;
14486;SDS011;7329;50.866;4.366;2022-08-05T12:22:09;2.38;;;1.35;;
14486;SDS011;7329;50.866;4.366;2022-08-05T12:24:14;2.65;;;1.15;;
14486;SDS011;7329;50.866;4.366;2022-08-05T12:26:17;2.85;;;1.45;;
14486;SDS011;7329;50.866;4.366;2022-08-05T12:28:30;2.65;;;1.60;;
14486;SDS011;7329;50.866;4.366;2022-08-05T12:30:36;1.58;;;1.20;;
14486;SDS011;7329;50.866;4.366;2022-08-05T12:32:42;1.75;;;1.20;;
14486;SDS011;7329;50.866;4.366;2022-08-05T12:34:46;1.95;;;1.38;;
14486;SDS011;7329;50.866;4.366;2022-08-05T12:36:49;1.63;;;1.17;;
14486;SDS011;7329;50.866;4.366;2022-08-05T12:38:55;1.10;;;1.00;;
14486;SDS011;7329;50.866;4.366;2022-08-05T12:40:58;2.22;;;1.15;;
14486;SDS011;7329;50.866;4.366;2022-08-05T12:43:00;2.80;;;1.25;;
14486;SDS011;7329;50.866;4.366;2022-08-05T12:45:04;1.23;;;1.13;;